Alton, KS

9:07 AM CDT on October 22, 2014 (GMT -0500)
Gorham Tele-Com | Change Station
CLOSE
Current Station
Personal Weather Station
Location: Paradise, KS
Elevation: 516 m
Nearby Weather Stations

Elev 516 m 39.12 °N, 98.92 °W | Updated 20 seconds ago

Clear
Clear
15.2 °C
Feels Like 15.2 °C
N
6.9
Wind Variable Wind from ESE
Gusts 12.2 km/h

Today
High -- | Low -- °C
--% Chance of Precip.
Yesterday
High -- | Low -- °C
Precip. -- mm
7:53 AM 6:46 PM
Waning Crescent, 2% visible
Pressure 1016 hPa
Visibility 16.1 kilometers
Clouds Clear
Dew Point 12 °C
Humidity 80%
Rainfall 0 mm
Snow Depth Not available.
UV 1 out of 12
Pollen 2.80 out of 12
Air Quality Not available.
Flu Activity No Activity
METAR KRSL 221353Z AUTO 17012G19KT 10SM CLR 14/11 A3003 RMK AO2 SLP162 T01440111

More Conditions Fewer Conditions

Pressure 1016 hPa
Visibility 16.1 kilometers
Clouds Clear
Dew Point 12 °C
Humidity 80%
Rainfall 0 mm
Snow Depth Not available.
UV 1 out of 12
Pollen 2.80 out of 12
Air Quality Not available.
Flu Activity No Activity
METAR KRSL 221353Z AUTO 17012G19KT 10SM CLR 14/11 A3003 RMK AO2 SLP162 T01440111

More Conditions Fewer Conditions

10-Day Weather Forecast

Almanac

Astronomy

Oct. 22, 2014 Rise Set
Actual Time 7:53 AM CDT 6:46 PM CDT
Civil Twilight 7:25 AM CDT 7:14 PM CDT
Nautical Twilight 6:54 AM CDT 7:45 PM CDT
Astronomical Twilight 6:23 AM CDT 8:16 PM CDT
Moon 6:36 AM CDT 6:14 PM CDT
Length of Visible Light 11h 48m
Length of Day
10h 53m
Tomorrow will be 2m 25s shorter.
Waning Crescent, 2% of the Moon is Illuminated
Today
Waning Crescent
Oct 23
New
Oct 30
First Quarter
Nov 6
Full
Nov 14
Last Quarter

Today's Extremes

State Highs State Lows

Community

WunderPhotos

Upload Photos

1,763,923 photos uploaded!

WunderBlogs® & News

Nearby

Snow Depth

Station Depth Elevation
No new snow has been reported.

Earthquake Activity

City Distance Mag. Time & Date
No recent earthquake activity has been reported nearby.
Minimum magnitude displayed is 2.5.

Coastal Water Temperatures

Place Temperature
No Stations Reporting

Nearby Weather Stations